sensor_id;sensor_type;location;lat;lon;timestamp;P1;durP1;ratioP1;P2;durP2;ratioP2
71303;SDS011;59091;47.446;19.148;2023-08-31T00:01:51;6.18;;;5.50;;
71303;SDS011;59091;47.446;19.148;2023-08-31T00:04:18;6.43;;;5.28;;
71303;SDS011;59091;47.446;19.148;2023-08-31T00:06:44;8.15;;;5.32;;
71303;SDS011;59091;47.446;19.148;2023-08-31T00:09:11;5.50;;;4.90;;
71303;SDS011;59091;47.446;19.148;2023-08-31T00:11:37;11.00;;;5.47;;
71303;SDS011;59091;47.446;19.148;2023-08-31T00:14:03;7.55;;;5.00;;
71303;SDS011;59091;47.446;19.148;2023-08-31T00:16:29;7.80;;;5.35;;
71303;SDS011;59091;47.446;19.148;2023-08-31T00:18:58;9.20;;;5.20;;
71303;SDS011;59091;47.446;19.148;2023-08-31T00:21:24;6.55;;;5.43;;
71303;SDS011;59091;47.446;19.148;2023-08-31T00:23:50;5.43;;;4.85;;
71303;SDS011;59091;47.446;19.148;2023-08-31T00:26:15;6.15;;;5.32;;
71303;SDS011;59091;47.446;19.148;2023-08-31T00:28:41;9.35;;;5.32;;
71303;SDS011;59091;47.446;19.148;2023-08-31T00:31:07;7.35;;;5.20;;
71303;SDS011;59091;47.446;19.148;2023-08-31T00:33:33;6.30;;;5.32;;
71303;SDS011;59091;47.446;19.148;2023-08-31T00:36:02;4.95;;;4.40;;
71303;SDS011;59091;47.446;19.148;2023-08-31T00:38:28;5.63;;;4.90;;
71303;SDS011;59091;47.446;19.148;2023-08-31T00:40:57;5.47;;;4.82;;
71303;SDS011;59091;47.446;19.148;2023-08-31T00:43:22;7.32;;;5.00;;
71303;SDS011;59091;47.446;19.148;2023-08-31T00:45:49;8.68;;;5.38;;
71303;SDS011;59091;47.446;19.148;2023-08-31T00:48:16;8.73;;;5.18;;
71303;SDS011;59091;47.446;19.148;2023-08-31T00:50:43;6.35;;;5.50;;
71303;SDS011;59091;47.446;19.148;2023-08-31T00:53:12;5.35;;;4.63;;
71303;SDS011;59091;47.446;19.148;2023-08-31T00:55:38;6.68;;;4.88;;
71303;SDS011;59091;47.446;19.148;2023-08-31T00:58:05;8.30;;;5.60;;
71303;SDS011;59091;47.446;19.148;2023-08-31T01:03:53;4.95;;;4.45;;
71303;SDS011;59091;47.446;19.148;2023-08-31T01:09:46;4.72;;;4.32;;
71303;SDS011;59091;47.446;19.148;2023-08-31T01:12:22;5.75;;;5.05;;
71303;SDS011;59091;47.446;19.148;2023-08-31T01:15:04;6.43;;;4.60;;
71303;SDS011;59091;47.446;19.148;2023-08-31T01:17:37;6.38;;;4.63;;
71303;SDS011;59091;47.446;19.148;2023-08-31T01:20:07;6.03;;;4.47;;
71303;SDS011;59091;47.446;19.148;2023-08-31T01:22:38;5.50;;;4.93;;
71303;SDS011;59091;47.446;19.148;2023-08-31T01:25:08;4.70;;;4.30;;
71303;SDS011;59091;47.446;19.148;2023-08-31T01:27:34;5.18;;;4.57;;
71303;SDS011;59091;47.446;19.148;2023-08-31T01:30:01;5.30;;;4.57;;
71303;SDS011;59091;47.446;19.148;2023-08-31T01:32:28;4.35;;;4.00;;
71303;SDS011;59091;47.446;19.148;2023-08-31T01:34:54;4.72;;;4.32;;
71303;SDS011;59091;47.446;19.148;2023-08-31T01:40:49;4.90;;;4.47;;
71303;SDS011;59091;47.446;19.148;2023-08-31T01:43:05;7.13;;;4.13;;
71303;SDS011;59091;47.446;19.148;2023-08-31T01:45:32;6.00;;;4.05;;
71303;SDS011;59091;47.446;19.148;2023-08-31T01:47:59;4.53;;;4.00;;
71303;SDS011;59091;47.446;19.148;2023-08-31T01:50:25;7.93;;;4.38;;
71303;SDS011;59091;47.446;19.148;2023-08-31T01:52:51;5.68;;;4.00;;
71303;SDS011;59091;47.446;19.148;2023-08-31T01:55:18;5.93;;;4.50;;
71303;SDS011;59091;47.446;19.148;2023-08-31T01:57:44;7.10;;;4.40;;
71303;SDS011;59091;47.446;19.148;2023-08-31T02:00:09;4.70;;;4.30;;
71303;SDS011;59091;47.446;19.148;2023-08-31T02:02:36;4.57;;;4.18;;
71303;SDS011;59091;47.446;19.148;2023-08-31T02:05:01;5.72;;;4.55;;
71303;SDS011;59091;47.446;19.148;2023-08-31T02:07:29;4.53;;;4.05;;
71303;SDS011;59091;47.446;19.148;2023-08-31T02:09:55;3.90;;;3.50;;
71303;SDS011;59091;47.446;19.148;2023-08-31T02:12:20;4.05;;;3.70;;
71303;SDS011;59091;47.446;19.148;2023-08-31T02:14:46;6.25;;;4.65;;
71303;SDS011;59091;47.446;19.148;2023-08-31T02:17:11;4.63;;;4.13;;
71303;SDS011;59091;47.446;19.148;2023-08-31T02:19:36;4.57;;;4.18;;
71303;SDS011;59091;47.446;19.148;2023-08-31T02:22:02;4.50;;;4.00;;
71303;SDS011;59091;47.446;19.148;2023-08-31T02:24:27;6.57;;;4.35;;
71303;SDS011;59091;47.446;19.148;2023-08-31T02:26:53;4.85;;;3.83;;
71303;SDS011;59091;47.446;19.148;2023-08-31T02:29:18;8.63;;;4.00;;
71303;SDS011;59091;47.446;19.148;2023-08-31T02:31:44;4.18;;;3.80;;
71303;SDS011;59091;47.446;19.148;2023-08-31T02:34:10;4.35;;;3.95;;
71303;SDS011;59091;47.446;19.148;2023-08-31T02:36:35;5.82;;;3.83;;
71303;SDS011;59091;47.446;19.148;2023-08-31T02:39:01;5.35;;;3.70;;
71303;SDS011;59091;47.446;19.148;2023-08-31T02:41:28;3.85;;;3.53;;
71303;SDS011;59091;47.446;19.148;2023-08-31T02:43:54;3.90;;;3.55;;
71303;SDS011;59091;47.446;19.148;2023-08-31T02:46:20;4.05;;;3.67;;
71303;SDS011;59091;47.446;19.148;2023-08-31T02:48:45;4.68;;;3.72;;
71303;SDS011;59091;47.446;19.148;2023-08-31T02:51:11;5.50;;;3.55;;
71303;SDS011;59091;47.446;19.148;2023-08-31T02:53:36;4.78;;;3.38;;
71303;SDS011;59091;47.446;19.148;2023-08-31T02:56:02;4.00;;;3.55;;
71303;SDS011;59091;47.446;19.148;2023-08-31T02:58:28;3.60;;;3.25;;
71303;SDS011;59091;47.446;19.148;2023-08-31T03:00:54;3.90;;;3.60;;
71303;SDS011;59091;47.446;19.148;2023-08-31T03:03:20;3.40;;;3.20;;
71303;SDS011;59091;47.446;19.148;2023-08-31T03:05:46;3.55;;;3.25;;
71303;SDS011;59091;47.446;19.148;2023-08-31T03:08:12;5.85;;;3.60;;
71303;SDS011;59091;47.446;19.148;2023-08-31T03:10:38;4.82;;;3.75;;
71303;SDS011;59091;47.446;19.148;2023-08-31T03:13:04;4.85;;;3.42;;
71303;SDS011;59091;47.446;19.148;2023-08-31T03:15:31;6.00;;;3.63;;
71303;SDS011;59091;47.446;19.148;2023-08-31T03:17:59;4.50;;;3.30;;
71303;SDS011;59091;47.446;19.148;2023-08-31T03:20:24;3.30;;;3.10;;
71303;SDS011;59091;47.446;19.148;2023-08-31T03:22:50;6.55;;;3.20;;
71303;SDS011;59091;47.446;19.148;2023-08-31T03:25:15;4.03;;;3.50;;
71303;SDS011;59091;47.446;19.148;2023-08-31T03:27:41;6.07;;;3.53;;
71303;SDS011;59091;47.446;19.148;2023-08-31T03:30:07;9.63;;;3.88;;
71303;SDS011;59091;47.446;19.148;2023-08-31T03:32:33;4.40;;;3.70;;
71303;SDS011;59091;47.446;19.148;2023-08-31T03:34:58;4.68;;;3.78;;
71303;SDS011;59091;47.446;19.148;2023-08-31T03:37:24;3.72;;;3.42;;
71303;SDS011;59091;47.446;19.148;2023-08-31T03:39:49;3.60;;;3.30;;
71303;SDS011;59091;47.446;19.148;2023-08-31T03:42:15;3.60;;;3.30;;
71303;SDS011;59091;47.446;19.148;2023-08-31T03:44:41;5.57;;;3.53;;
71303;SDS011;59091;47.446;19.148;2023-08-31T03:47:06;4.90;;;3.50;;
71303;SDS011;59091;47.446;19.148;2023-08-31T03:49:32;9.50;;;3.85;;
71303;SDS011;59091;47.446;19.148;2023-08-31T03:51:58;3.70;;;3.40;;
71303;SDS011;59091;47.446;19.148;2023-08-31T03:54:25;5.05;;;3.63;;
71303;SDS011;59091;47.446;19.148;2023-08-31T03:56:50;3.55;;;3.25;;
71303;SDS011;59091;47.446;19.148;2023-08-31T03:59:16;4.30;;;3.50;;
71303;SDS011;59091;47.446;19.148;2023-08-31T04:01:41;5.68;;;3.50;;
71303;SDS011;59091;47.446;19.148;2023-08-31T04:04:07;5.65;;;2.95;;
71303;SDS011;59091;47.446;19.148;2023-08-31T04:06:32;3.72;;;3.42;;
71303;SDS011;59091;47.446;19.148;2023-08-31T04:08:57;7.25;;;3.38;;
71303;SDS011;59091;47.446;19.148;2023-08-31T04:11:24;4.80;;;3.25;;
71303;SDS011;59091;47.446;19.148;2023-08-31T04:13:51;3.50;;;3.20;;
71303;SDS011;59091;47.446;19.148;2023-08-31T04:16:16;3.40;;;3.00;;
71303;SDS011;59091;47.446;19.148;2023-08-31T04:18:42;4.65;;;3.65;;
71303;SDS011;59091;47.446;19.148;2023-08-31T04:21:08;4.85;;;3.55;;
71303;SDS011;59091;47.446;19.148;2023-08-31T04:23:33;3.88;;;3.45;;
71303;SDS011;59091;47.446;19.148;2023-08-31T04:25:59;4.38;;;3.08;;
71303;SDS011;59091;47.446;19.148;2023-08-31T04:28:24;5.22;;;3.45;;
71303;SDS011;59091;47.446;19.148;2023-08-31T04:30:50;3.83;;;3.17;;
71303;SDS011;59091;47.446;19.148;2023-08-31T04:33:17;3.67;;;3.38;;
71303;SDS011;59091;47.446;19.148;2023-08-31T04:35:43;3.50;;;3.20;;
71303;SDS011;59091;47.446;19.148;2023-08-31T04:38:09;4.07;;;3.08;;
71303;SDS011;59091;47.446;19.148;2023-08-31T04:40:36;6.28;;;3.67;;
71303;SDS011;59091;47.446;19.148;2023-08-31T04:43:01;4.35;;;3.50;;
71303;SDS011;59091;47.446;19.148;2023-08-31T04:45:28;3.50;;;3.20;;
71303;SDS011;59091;47.446;19.148;2023-08-31T04:47:53;4.30;;;3.78;;
71303;SDS011;59091;47.446;19.148;2023-08-31T04:50:19;5.43;;;3.70;;
71303;SDS011;59091;47.446;19.148;2023-08-31T04:52:44;4.38;;;3.20;;
71303;SDS011;59091;47.446;19.148;2023-08-31T04:55:09;3.78;;;3.47;;
71303;SDS011;59091;47.446;19.148;2023-08-31T04:57:38;6.05;;;3.55;;
71303;SDS011;59091;47.446;19.148;2023-08-31T05:00:04;7.25;;;3.97;;
71303;SDS011;59091;47.446;19.148;2023-08-31T05:02:30;4.70;;;3.45;;
71303;SDS011;59091;47.446;19.148;2023-08-31T05:04:55;5.55;;;3.50;;
71303;SDS011;59091;47.446;19.148;2023-08-31T05:07:21;5.72;;;4.25;;
71303;SDS011;59091;47.446;19.148;2023-08-31T05:09:46;3.80;;;3.50;;
71303;SDS011;59091;47.446;19.148;2023-08-31T05:12:11;5.88;;;3.75;;
71303;SDS011;59091;47.446;19.148;2023-08-31T05:14:37;4.55;;;3.53;;
71303;SDS011;59091;47.446;19.148;2023-08-31T05:17:04;4.85;;;3.20;;
71303;SDS011;59091;47.446;19.148;2023-08-31T05:19:30;6.75;;;2.97;;
71303;SDS011;59091;47.446;19.148;2023-08-31T05:21:56;3.75;;;3.42;;
71303;SDS011;59091;47.446;19.148;2023-08-31T05:24:21;3.30;;;3.00;;
71303;SDS011;59091;47.446;19.148;2023-08-31T05:26:47;4.68;;;3.20;;
71303;SDS011;59091;47.446;19.148;2023-08-31T05:29:12;4.03;;;2.72;;
71303;SDS011;59091;47.446;19.148;2023-08-31T05:31:37;4.45;;;3.25;;
71303;SDS011;59091;47.446;19.148;2023-08-31T05:34:03;6.15;;;3.53;;
71303;SDS011;59091;47.446;19.148;2023-08-31T05:36:28;4.97;;;3.50;;
71303;SDS011;59091;47.446;19.148;2023-08-31T05:38:54;3.80;;;3.50;;
71303;SDS011;59091;47.446;19.148;2023-08-31T05:41:19;8.55;;;2.88;;
71303;SDS011;59091;47.446;19.148;2023-08-31T05:43:46;3.22;;;2.70;;
71303;SDS011;59091;47.446;19.148;2023-08-31T05:46:11;8.73;;;2.90;;
71303;SDS011;59091;47.446;19.148;2023-08-31T05:48:36;3.65;;;2.92;;
71303;SDS011;59091;47.446;19.148;2023-08-31T05:51:02;4.80;;;2.80;;
71303;SDS011;59091;47.446;19.148;2023-08-31T05:53:29;6.00;;;2.70;;
71303;SDS011;59091;47.446;19.148;2023-08-31T05:55:55;3.47;;;2.45;;
71303;SDS011;59091;47.446;19.148;2023-08-31T05:58:28;9.20;;;3.20;;
71303;SDS011;59091;47.446;19.148;2023-08-31T06:00:54;16.58;;;2.95;;
71303;SDS011;59091;47.446;19.148;2023-08-31T06:03:20;6.57;;;2.60;;
71303;SDS011;59091;47.446;19.148;2023-08-31T06:05:45;4.18;;;2.55;;
71303;SDS011;59091;47.446;19.148;2023-08-31T06:08:11;14.63;;;2.90;;
71303;SDS011;59091;47.446;19.148;2023-08-31T06:10:43;9.90;;;2.50;;
71303;SDS011;59091;47.446;19.148;2023-08-31T06:13:08;6.13;;;2.42;;
71303;SDS011;59091;47.446;19.148;2023-08-31T06:15:34;7.63;;;2.67;;
71303;SDS011;59091;47.446;19.148;2023-08-31T06:17:59;6.22;;;2.67;;
71303;SDS011;59091;47.446;19.148;2023-08-31T06:20:25;5.88;;;2.38;;
71303;SDS011;59091;47.446;19.148;2023-08-31T06:22:50;7.85;;;2.60;;
71303;SDS011;59091;47.446;19.148;2023-08-31T06:25:16;9.75;;;2.10;;
71303;SDS011;59091;47.446;19.148;2023-08-31T06:27:43;7.93;;;2.13;;
71303;SDS011;59091;47.446;19.148;2023-08-31T06:30:09;8.27;;;2.05;;
71303;SDS011;59091;47.446;19.148;2023-08-31T06:32:40;5.95;;;2.33;;
71303;SDS011;59091;47.446;19.148;2023-08-31T06:35:07;4.38;;;2.20;;
71303;SDS011;59091;47.446;19.148;2023-08-31T06:37:32;2.72;;;2.30;;
71303;SDS011;59091;47.446;19.148;2023-08-31T06:39:58;10.57;;;2.20;;
71303;SDS011;59091;47.446;19.148;2023-08-31T06:42:23;3.88;;;2.03;;
71303;SDS011;59091;47.446;19.148;2023-08-31T06:44:49;7.35;;;2.15;;
71303;SDS011;59091;47.446;19.148;2023-08-31T06:47:14;3.58;;;2.28;;
71303;SDS011;59091;47.446;19.148;2023-08-31T06:49:42;3.20;;;2.30;;
71303;SDS011;59091;47.446;19.148;2023-08-31T06:52:08;5.07;;;2.47;;
71303;SDS011;59091;47.446;19.148;2023-08-31T06:54:33;2.50;;;2.30;;
71303;SDS011;59091;47.446;19.148;2023-08-31T06:56:59;4.00;;;2.35;;
71303;SDS011;59091;47.446;19.148;2023-08-31T06:59:24;6.40;;;2.30;;
71303;SDS011;59091;47.446;19.148;2023-08-31T07:01:50;5.50;;;2.42;;
71303;SDS011;59091;47.446;19.148;2023-08-31T07:04:15;3.97;;;2.10;;
71303;SDS011;59091;47.446;19.148;2023-08-31T07:06:41;2.72;;;2.30;;
71303;SDS011;59091;47.446;19.148;2023-08-31T07:09:06;2.50;;;1.95;;
71303;SDS011;59091;47.446;19.148;2023-08-31T07:11:33;2.00;;;1.90;;
71303;SDS011;59091;47.446;19.148;2023-08-31T07:13:59;4.63;;;2.20;;
71303;SDS011;59091;47.446;19.148;2023-08-31T07:16:24;2.30;;;2.10;;
71303;SDS011;59091;47.446;19.148;2023-08-31T07:18:50;2.45;;;2.25;;
71303;SDS011;59091;47.446;19.148;2023-08-31T07:21:16;3.63;;;1.95;;
71303;SDS011;59091;47.446;19.148;2023-08-31T07:23:41;4.07;;;2.17;;
71303;SDS011;59091;47.446;19.148;2023-08-31T07:26:07;2.25;;;2.10;;
71303;SDS011;59091;47.446;19.148;2023-08-31T07:28:32;3.33;;;2.20;;
71303;SDS011;59091;47.446;19.148;2023-08-31T07:31:01;30.10;;;3.45;;
71303;SDS011;59091;47.446;19.148;2023-08-31T07:33:28;3.83;;;2.45;;
71303;SDS011;59091;47.446;19.148;2023-08-31T07:35:56;7.28;;;2.17;;
71303;SDS011;59091;47.446;19.148;2023-08-31T07:38:22;2.83;;;2.00;;
71303;SDS011;59091;47.446;19.148;2023-08-31T07:40:47;2.80;;;2.22;;
71303;SDS011;59091;47.446;19.148;2023-08-31T07:43:13;2.42;;;2.05;;
71303;SDS011;59091;47.446;19.148;2023-08-31T07:45:38;2.20;;;2.10;;
71303;SDS011;59091;47.446;19.148;2023-08-31T07:48:04;2.30;;;2.10;;
71303;SDS011;59091;47.446;19.148;2023-08-31T07:50:31;3.58;;;2.15;;
71303;SDS011;59091;47.446;19.148;2023-08-31T07:52:56;2.15;;;1.95;;
71303;SDS011;59091;47.446;19.148;2023-08-31T07:55:21;2.40;;;2.20;;
71303;SDS011;59091;47.446;19.148;2023-08-31T07:57:47;2.63;;;2.38;;
71303;SDS011;59091;47.446;19.148;2023-08-31T08:00:13;6.63;;;2.45;;
71303;SDS011;59091;47.446;19.148;2023-08-31T08:02:40;3.28;;;2.30;;
71303;SDS011;59091;47.446;19.148;2023-08-31T08:05:05;4.78;;;2.40;;
71303;SDS011;59091;47.446;19.148;2023-08-31T08:07:31;6.50;;;2.40;;
71303;SDS011;59091;47.446;19.148;2023-08-31T08:09:56;4.47;;;2.40;;
71303;SDS011;59091;47.446;19.148;2023-08-31T08:12:22;4.13;;;2.67;;
71303;SDS011;59091;47.446;19.148;2023-08-31T08:14:48;3.90;;;2.17;;
71303;SDS011;59091;47.446;19.148;2023-08-31T08:17:14;2.78;;;2.25;;
71303;SDS011;59091;47.446;19.148;2023-08-31T08:19:39;2.80;;;2.30;;
71303;SDS011;59091;47.446;19.148;2023-08-31T08:22:04;4.88;;;2.53;;
71303;SDS011;59091;47.446;19.148;2023-08-31T08:24:30;2.28;;;2.08;;
71303;SDS011;59091;47.446;19.148;2023-08-31T08:26:55;2.28;;;1.98;;
71303;SDS011;59091;47.446;19.148;2023-08-31T08:29:21;3.10;;;2.30;;
71303;SDS011;59091;47.446;19.148;2023-08-31T08:31:46;2.38;;;2.17;;
71303;SDS011;59091;47.446;19.148;2023-08-31T08:34:12;3.67;;;2.10;;
71303;SDS011;59091;47.446;19.148;2023-08-31T08:36:37;2.67;;;2.47;;
71303;SDS011;59091;47.446;19.148;2023-08-31T08:39:02;2.85;;;2.13;;
71303;SDS011;59091;47.446;19.148;2023-08-31T08:41:32;5.82;;;2.42;;
71303;SDS011;59091;47.446;19.148;2023-08-31T08:44:13;2.75;;;2.25;;
71303;SDS011;59091;47.446;19.148;2023-08-31T08:46:42;2.08;;;1.90;;
71303;SDS011;59091;47.446;19.148;2023-08-31T08:49:09;2.22;;;1.98;;
71303;SDS011;59091;47.446;19.148;2023-08-31T08:51:35;2.25;;;2.15;;
71303;SDS011;59091;47.446;19.148;2023-08-31T08:54:01;3.65;;;2.35;;
71303;SDS011;59091;47.446;19.148;2023-08-31T08:56:26;3.33;;;2.30;;
71303;SDS011;59091;47.446;19.148;2023-08-31T08:58:52;2.90;;;2.28;;
71303;SDS011;59091;47.446;19.148;2023-08-31T09:01:18;2.03;;;1.92;;
71303;SDS011;59091;47.446;19.148;2023-08-31T09:03:47;2.35;;;2.15;;
71303;SDS011;59091;47.446;19.148;2023-08-31T09:06:13;2.83;;;2.20;;
71303;SDS011;59091;47.446;19.148;2023-08-31T09:08:39;3.75;;;2.30;;
71303;SDS011;59091;47.446;19.148;2023-08-31T09:11:06;2.25;;;2.08;;
71303;SDS011;59091;47.446;19.148;2023-08-31T09:13:31;2.33;;;2.10;;
71303;SDS011;59091;47.446;19.148;2023-08-31T09:15:58;2.60;;;2.40;;
71303;SDS011;59091;47.446;19.148;2023-08-31T09:18:30;5.28;;;2.10;;
71303;SDS011;59091;47.446;19.148;2023-08-31T09:20:57;4.22;;;1.90;;
71303;SDS011;59091;47.446;19.148;2023-08-31T09:23:23;2.33;;;1.90;;
71303;SDS011;59091;47.446;19.148;2023-08-31T09:25:50;2.95;;;1.90;;
71303;SDS011;59091;47.446;19.148;2023-08-31T09:28:19;2.13;;;1.98;;
71303;SDS011;59091;47.446;19.148;2023-08-31T09:30:46;2.85;;;1.90;;
71303;SDS011;59091;47.446;19.148;2023-08-31T09:33:14;1.95;;;1.80;;
71303;SDS011;59091;47.446;19.148;2023-08-31T09:35:49;3.38;;;2.00;;
71303;SDS011;59091;47.446;19.148;2023-08-31T09:38:20;1.80;;;1.67;;
71303;SDS011;59091;47.446;19.148;2023-08-31T09:40:46;3.70;;;2.00;;
71303;SDS011;59091;47.446;19.148;2023-08-31T09:43:12;3.63;;;1.92;;
71303;SDS011;59091;47.446;19.148;2023-08-31T09:45:48;1.90;;;1.77;;
71303;SDS011;59091;47.446;19.148;2023-08-31T09:48:15;3.00;;;1.90;;
71303;SDS011;59091;47.446;19.148;2023-08-31T09:50:40;2.65;;;1.88;;
71303;SDS011;59091;47.446;19.148;2023-08-31T09:53:10;6.15;;;2.08;;
71303;SDS011;59091;47.446;19.148;2023-08-31T09:55:36;1.80;;;1.70;;
71303;SDS011;59091;47.446;19.148;2023-08-31T09:58:04;2.60;;;1.90;;
71303;SDS011;59091;47.446;19.148;2023-08-31T10:00:32;2.55;;;1.70;;
71303;SDS011;59091;47.446;19.148;2023-08-31T10:03:00;3.08;;;1.75;;
71303;SDS011;59091;47.446;19.148;2023-08-31T10:05:27;1.83;;;1.70;;
71303;SDS011;59091;47.446;19.148;2023-08-31T10:07:53;4.05;;;1.90;;
71303;SDS011;59091;47.446;19.148;2023-08-31T10:10:19;2.95;;;1.80;;
71303;SDS011;59091;47.446;19.148;2023-08-31T10:12:50;2.90;;;1.85;;
71303;SDS011;59091;47.446;19.148;2023-08-31T10:15:17;1.90;;;1.75;;
71303;SDS011;59091;47.446;19.148;2023-08-31T10:17:43;1.60;;;1.50;;
71303;SDS011;59091;47.446;19.148;2023-08-31T10:20:09;1.88;;;1.73;;
71303;SDS011;59091;47.446;19.148;2023-08-31T10:22:37;4.13;;;1.80;;
71303;SDS011;59091;47.446;19.148;2023-08-31T10:25:06;4.38;;;1.90;;
71303;SDS011;59091;47.446;19.148;2023-08-31T10:27:42;2.53;;;1.83;;
71303;SDS011;59091;47.446;19.148;2023-08-31T10:30:14;2.70;;;1.65;;
71303;SDS011;59091;47.446;19.148;2023-08-31T10:32:41;1.80;;;1.70;;
71303;SDS011;59091;47.446;19.148;2023-08-31T10:35:09;1.83;;;1.70;;
71303;SDS011;59091;47.446;19.148;2023-08-31T10:37:34;4.28;;;1.70;;
71303;SDS011;59091;47.446;19.148;2023-08-31T10:40:07;1.85;;;1.75;;
71303;SDS011;59091;47.446;19.148;2023-08-31T10:45:06;2.28;;;1.60;;
71303;SDS011;59091;47.446;19.148;2023-08-31T10:47:38;2.28;;;1.75;;
71303;SDS011;59091;47.446;19.148;2023-08-31T10:52:48;1.60;;;1.50;;
71303;SDS011;59091;47.446;19.148;2023-08-31T10:55:14;1.88;;;1.70;;
71303;SDS011;59091;47.446;19.148;2023-08-31T10:57:40;3.22;;;1.63;;
71303;SDS011;59091;47.446;19.148;2023-08-31T11:00:06;4.70;;;1.60;;
71303;SDS011;59091;47.446;19.148;2023-08-31T11:05:11;1.92;;;1.80;;
71303;SDS011;59091;47.446;19.148;2023-08-31T11:07:46;2.95;;;1.73;;
71303;SDS011;59091;47.446;19.148;2023-08-31T11:10:16;1.90;;;1.70;;
71303;SDS011;59091;47.446;19.148;2023-08-31T11:13:04;1.83;;;1.65;;
71303;SDS011;59091;47.446;19.148;2023-08-31T11:15:29;1.88;;;1.50;;
71303;SDS011;59091;47.446;19.148;2023-08-31T11:17:55;2.08;;;1.75;;
71303;SDS011;59091;47.446;19.148;2023-08-31T11:20:21;2.60;;;1.60;;
71303;SDS011;59091;47.446;19.148;2023-08-31T11:22:49;2.20;;;1.70;;
71303;SDS011;59091;47.446;19.148;2023-08-31T11:25:15;2.05;;;1.70;;
71303;SDS011;59091;47.446;19.148;2023-08-31T11:27:41;1.60;;;1.50;;
71303;SDS011;59091;47.446;19.148;2023-08-31T11:30:14;2.28;;;1.60;;
71303;SDS011;59091;47.446;19.148;2023-08-31T11:32:44;1.97;;;1.70;;
71303;SDS011;59091;47.446;19.148;2023-08-31T11:35:10;1.80;;;1.70;;
71303;SDS011;59091;47.446;19.148;2023-08-31T11:37:36;5.30;;;1.70;;
71303;SDS011;59091;47.446;19.148;2023-08-31T11:40:02;2.13;;;1.52;;
71303;SDS011;59091;47.446;19.148;2023-08-31T11:42:30;2.13;;;1.80;;
71303;SDS011;59091;47.446;19.148;2023-08-31T11:44:56;2.83;;;1.80;;
71303;SDS011;59091;47.446;19.148;2023-08-31T11:47:22;4.28;;;1.70;;
71303;SDS011;59091;47.446;19.148;2023-08-31T11:49:49;2.70;;;1.70;;
71303;SDS011;59091;47.446;19.148;2023-08-31T11:52:15;1.80;;;1.70;;
71303;SDS011;59091;47.446;19.148;2023-08-31T11:54:42;1.85;;;1.75;;
71303;SDS011;59091;47.446;19.148;2023-08-31T11:57:08;2.28;;;1.65;;
71303;SDS011;59091;47.446;19.148;2023-08-31T11:59:35;1.60;;;1.50;;
71303;SDS011;59091;47.446;19.148;2023-08-31T12:02:02;3.08;;;1.88;;
71303;SDS011;59091;47.446;19.148;2023-08-31T12:04:32;2.00;;;1.63;;
71303;SDS011;59091;47.446;19.148;2023-08-31T12:07:00;2.53;;;1.55;;
71303;SDS011;59091;47.446;19.148;2023-08-31T12:09:29;1.85;;;1.70;;
71303;SDS011;59091;47.446;19.148;2023-08-31T12:11:55;5.07;;;1.90;;
71303;SDS011;59091;47.446;19.148;2023-08-31T12:14:22;1.60;;;1.50;;
71303;SDS011;59091;47.446;19.148;2023-08-31T12:16:48;1.70;;;1.60;;
71303;SDS011;59091;47.446;19.148;2023-08-31T12:19:15;4.45;;;1.67;;
71303;SDS011;59091;47.446;19.148;2023-08-31T12:21:42;1.70;;;1.60;;
71303;SDS011;59091;47.446;19.148;2023-08-31T12:24:08;3.17;;;1.90;;
71303;SDS011;59091;47.446;19.148;2023-08-31T12:26:34;1.98;;;1.73;;
71303;SDS011;59091;47.446;19.148;2023-08-31T12:29:00;5.30;;;1.80;;
71303;SDS011;59091;47.446;19.148;2023-08-31T12:31:25;1.92;;;1.83;;
71303;SDS011;59091;47.446;19.148;2023-08-31T12:33:51;2.03;;;1.80;;
71303;SDS011;59091;47.446;19.148;2023-08-31T12:36:17;3.22;;;1.98;;
71303;SDS011;59091;47.446;19.148;2023-08-31T12:38:42;1.60;;;1.50;;
71303;SDS011;59091;47.446;19.148;2023-08-31T12:41:08;2.22;;;2.03;;
71303;SDS011;59091;47.446;19.148;2023-08-31T12:43:34;2.78;;;1.90;;
71303;SDS011;59091;47.446;19.148;2023-08-31T12:46:00;3.10;;;1.95;;
71303;SDS011;59091;47.446;19.148;2023-08-31T12:48:25;1.70;;;1.60;;
71303;SDS011;59091;47.446;19.148;2023-08-31T12:50:51;2.22;;;1.92;;
71303;SDS011;59091;47.446;19.148;2023-08-31T12:53:20;3.08;;;1.95;;
71303;SDS011;59091;47.446;19.148;2023-08-31T12:55:47;2.35;;;1.98;;
71303;SDS011;59091;47.446;19.148;2023-08-31T12:58:12;1.90;;;1.80;;
71303;SDS011;59091;47.446;19.148;2023-08-31T13:00:38;4.13;;;1.80;;
71303;SDS011;59091;47.446;19.148;2023-08-31T13:03:04;4.75;;;2.17;;
71303;SDS011;59091;47.446;19.148;2023-08-31T13:05:31;3.58;;;2.00;;
71303;SDS011;59091;47.446;19.148;2023-08-31T13:07:57;4.07;;;1.70;;
71303;SDS011;59091;47.446;19.148;2023-08-31T13:10:22;2.80;;;2.08;;
71303;SDS011;59091;47.446;19.148;2023-08-31T13:12:48;1.75;;;1.65;;
71303;SDS011;59091;47.446;19.148;2023-08-31T13:15:14;1.98;;;1.80;;
71303;SDS011;59091;47.446;19.148;2023-08-31T13:17:40;4.93;;;1.65;;
71303;SDS011;59091;47.446;19.148;2023-08-31T13:20:05;1.90;;;1.80;;
71303;SDS011;59091;47.446;19.148;2023-08-31T13:22:33;1.95;;;1.85;;
71303;SDS011;59091;47.446;19.148;2023-08-31T13:24:58;2.53;;;2.00;;
71303;SDS011;59091;47.446;19.148;2023-08-31T13:27:24;1.80;;;1.70;;
71303;SDS011;59091;47.446;19.148;2023-08-31T13:29:50;1.83;;;1.73;;
71303;SDS011;59091;47.446;19.148;2023-08-31T13:32:16;3.15;;;1.98;;
71303;SDS011;59091;47.446;19.148;2023-08-31T13:34:41;4.05;;;2.22;;
71303;SDS011;59091;47.446;19.148;2023-08-31T13:37:07;2.97;;;2.22;;
71303;SDS011;59091;47.446;19.148;2023-08-31T13:39:33;2.88;;;1.90;;
71303;SDS011;59091;47.446;19.148;2023-08-31T13:42:00;2.20;;;2.10;;
71303;SDS011;59091;47.446;19.148;2023-08-31T13:44:28;4.70;;;3.42;;
71303;SDS011;59091;47.446;19.148;2023-08-31T13:46:54;6.72;;;5.70;;
71303;SDS011;59091;47.446;19.148;2023-08-31T13:49:19;2.60;;;2.40;;
71303;SDS011;59091;47.446;19.148;2023-08-31T13:51:44;1.83;;;1.60;;
71303;SDS011;59091;47.446;19.148;2023-08-31T13:54:10;2.10;;;1.90;;
71303;SDS011;59091;47.446;19.148;2023-08-31T13:56:36;1.95;;;1.85;;
71303;SDS011;59091;47.446;19.148;2023-08-31T13:59:02;3.40;;;2.20;;
71303;SDS011;59091;47.446;19.148;2023-08-31T14:01:28;2.47;;;2.28;;
71303;SDS011;59091;47.446;19.148;2023-08-31T14:03:53;2.00;;;1.90;;
71303;SDS011;59091;47.446;19.148;2023-08-31T14:06:19;2.15;;;1.88;;
71303;SDS011;59091;47.446;19.148;2023-08-31T14:08:44;3.17;;;2.10;;
71303;SDS011;59091;47.446;19.148;2023-08-31T14:11:09;1.85;;;1.75;;
71303;SDS011;59091;47.446;19.148;2023-08-31T14:13:35;2.53;;;2.10;;
71303;SDS011;59091;47.446;19.148;2023-08-31T14:16:01;2.05;;;1.95;;
71303;SDS011;59091;47.446;19.148;2023-08-31T14:18:27;2.45;;;2.00;;
71303;SDS011;59091;47.446;19.148;2023-08-31T14:20:57;2.17;;;1.95;;
71303;SDS011;59091;47.446;19.148;2023-08-31T14:23:23;2.33;;;1.98;;
71303;SDS011;59091;47.446;19.148;2023-08-31T14:25:49;2.20;;;2.00;;
71303;SDS011;59091;47.446;19.148;2023-08-31T14:28:15;5.18;;;1.88;;
71303;SDS011;59091;47.446;19.148;2023-08-31T14:30:40;2.28;;;2.05;;
71303;SDS011;59091;47.446;19.148;2023-08-31T14:33:05;4.32;;;2.10;;
71303;SDS011;59091;47.446;19.148;2023-08-31T14:35:31;3.08;;;2.10;;
71303;SDS011;59091;47.446;19.148;2023-08-31T14:37:57;2.38;;;2.17;;
71303;SDS011;59091;47.446;19.148;2023-08-31T14:40:23;2.10;;;1.63;;
71303;SDS011;59091;47.446;19.148;2023-08-31T14:42:49;2.60;;;2.00;;
71303;SDS011;59091;47.446;19.148;2023-08-31T14:45:14;2.30;;;2.10;;
71303;SDS011;59091;47.446;19.148;2023-08-31T14:47:40;2.00;;;1.90;;